Bristol, California
Current Conditions -  °F | °C
As of 3:53 PM on Tuesday 25 Nov 2014 (Local Time) from KSNA Reporting Station
Clear Clear  
Wind Chill: 78°   Ceiling: Unl
Heat Index: 78°   Visibility: 10mi
Dew Point: 17°   Wind: 6mph
Humidity: 10%   Direction: 250°WSW
Pressure: 30.25"   Gusts: NA
Location:  33.7458°N, 117.891°W
Report Text: KSNA 252353Z 25005KT 10SM CLR 26/M08 A3025 RMK AO2 SLP242 T02561083 10283 20228 56008
Loading
Personal Weather Stations






























Interactive Weather Map New forecast layout! Learn more

10-Day Weather Forecast

Advertisements
Track Severe Weather on mobile